sensor_id;sensor_type;location;lat;lon;timestamp;P1;durP1;ratioP1;P2;durP2;ratioP2
55678;SDS011;41573;51.446;-2.018;2022-07-12T00:01:05;0.35;;;0.35;;
55678;SDS011;41573;51.446;-2.018;2022-07-12T00:03:31;0.20;;;0.20;;
55678;SDS011;41573;51.446;-2.018;2022-07-12T00:05:57;1.00;;;1.00;;
55678;SDS011;41573;51.446;-2.018;2022-07-12T00:08:23;0.20;;;0.20;;
55678;SDS011;41573;51.446;-2.018;2022-07-12T00:10:49;0.20;;;0.20;;
55678;SDS011;41573;51.446;-2.018;2022-07-12T00:13:15;0.30;;;0.30;;
55678;SDS011;41573;51.446;-2.018;2022-07-12T00:15:41;0.32;;;0.32;;
55678;SDS011;41573;51.446;-2.018;2022-07-12T00:18:07;0.47;;;0.47;;
55678;SDS011;41573;51.446;-2.018;2022-07-12T00:20:32;0.93;;;0.50;;
55678;SDS011;41573;51.446;-2.018;2022-07-12T00:22:58;0.40;;;0.40;;
55678;SDS011;41573;51.446;-2.018;2022-07-12T00:25:23;0.20;;;0.20;;
55678;SDS011;41573;51.446;-2.018;2022-07-12T00:27:50;0.22;;;0.22;;
55678;SDS011;41573;51.446;-2.018;2022-07-12T00:30:15;0.20;;;0.20;;
55678;SDS011;41573;51.446;-2.018;2022-07-12T00:32:41;0.40;;;0.40;;
55678;SDS011;41573;51.446;-2.018;2022-07-12T00:35:06;0.45;;;0.45;;
55678;SDS011;41573;51.446;-2.018;2022-07-12T00:37:32;0.40;;;0.40;;
55678;SDS011;41573;51.446;-2.018;2022-07-12T00:39:58;0.20;;;0.20;;
55678;SDS011;41573;51.446;-2.018;2022-07-12T00:42:24;0.30;;;0.30;;
55678;SDS011;41573;51.446;-2.018;2022-07-12T00:44:50;0.40;;;0.40;;
55678;SDS011;41573;51.446;-2.018;2022-07-12T00:47:26;0.10;;;0.10;;
55678;SDS011;41573;51.446;-2.018;2022-07-12T00:49:57;0.30;;;0.30;;
55678;SDS011;41573;51.446;-2.018;2022-07-12T00:52:23;2.35;;;0.40;;
55678;SDS011;41573;51.446;-2.018;2022-07-12T00:54:49;0.32;;;0.32;;
55678;SDS011;41573;51.446;-2.018;2022-07-12T00:57:15;0.50;;;0.50;;
55678;SDS011;41573;51.446;-2.018;2022-07-12T00:59:40;0.40;;;0.40;;
55678;SDS011;41573;51.446;-2.018;2022-07-12T01:02:06;0.63;;;0.63;;
55678;SDS011;41573;51.446;-2.018;2022-07-12T01:04:32;0.13;;;0.13;;
55678;SDS011;41573;51.446;-2.018;2022-07-12T01:06:58;0.28;;;0.28;;
55678;SDS011;41573;51.446;-2.018;2022-07-12T01:09:24;0.20;;;0.20;;
55678;SDS011;41573;51.446;-2.018;2022-07-12T01:11:49;0.20;;;0.20;;
55678;SDS011;41573;51.446;-2.018;2022-07-12T01:14:15;0.70;;;0.70;;
55678;SDS011;41573;51.446;-2.018;2022-07-12T01:16:41;0.20;;;0.20;;
55678;SDS011;41573;51.446;-2.018;2022-07-12T01:19:06;0.30;;;0.30;;
55678;SDS011;41573;51.446;-2.018;2022-07-12T01:21:34;0.43;;;0.43;;
55678;SDS011;41573;51.446;-2.018;2022-07-12T01:24:04;0.20;;;0.20;;
55678;SDS011;41573;51.446;-2.018;2022-07-12T01:26:31;0.30;;;0.30;;
55678;SDS011;41573;51.446;-2.018;2022-07-12T01:28:57;0.70;;;0.68;;
55678;SDS011;41573;51.446;-2.018;2022-07-12T01:31:23;0.20;;;0.20;;
55678;SDS011;41573;51.446;-2.018;2022-07-12T01:33:49;0.40;;;0.40;;
55678;SDS011;41573;51.446;-2.018;2022-07-12T01:36:15;0.50;;;0.50;;
55678;SDS011;41573;51.446;-2.018;2022-07-12T01:38:41;0.50;;;0.50;;
55678;SDS011;41573;51.446;-2.018;2022-07-12T01:41:06;0.20;;;0.20;;
55678;SDS011;41573;51.446;-2.018;2022-07-12T01:43:33;1.08;;;0.77;;
55678;SDS011;41573;51.446;-2.018;2022-07-12T01:45:58;0.40;;;0.40;;
55678;SDS011;41573;51.446;-2.018;2022-07-12T01:48:23;0.13;;;0.13;;
55678;SDS011;41573;51.446;-2.018;2022-07-12T01:50:49;0.43;;;0.43;;
55678;SDS011;41573;51.446;-2.018;2022-07-12T01:53:15;0.30;;;0.30;;
55678;SDS011;41573;51.446;-2.018;2022-07-12T01:55:41;0.10;;;0.10;;
55678;SDS011;41573;51.446;-2.018;2022-07-12T01:58:06;0.68;;;0.68;;
55678;SDS011;41573;51.446;-2.018;2022-07-12T02:00:32;0.50;;;0.50;;
55678;SDS011;41573;51.446;-2.018;2022-07-12T02:02:57;0.30;;;0.30;;
55678;SDS011;41573;51.446;-2.018;2022-07-12T02:05:22;0.55;;;0.55;;
55678;SDS011;41573;51.446;-2.018;2022-07-12T02:07:49;0.30;;;0.30;;
55678;SDS011;41573;51.446;-2.018;2022-07-12T02:10:14;0.70;;;0.68;;
55678;SDS011;41573;51.446;-2.018;2022-07-12T02:12:40;0.73;;;0.73;;
55678;SDS011;41573;51.446;-2.018;2022-07-12T02:15:06;11.50;;;1.88;;
55678;SDS011;41573;51.446;-2.018;2022-07-12T02:17:32;2.28;;;2.08;;
55678;SDS011;41573;51.446;-2.018;2022-07-12T02:19:58;4.22;;;3.65;;
55678;SDS011;41573;51.446;-2.018;2022-07-12T02:22:24;18.27;;;6.57;;
55678;SDS011;41573;51.446;-2.018;2022-07-12T02:24:49;21.33;;;10.73;;
55678;SDS011;41573;51.446;-2.018;2022-07-12T02:27:15;19.15;;;10.75;;
55678;SDS011;41573;51.446;-2.018;2022-07-12T02:29:41;14.35;;;11.90;;
55678;SDS011;41573;51.446;-2.018;2022-07-12T02:32:07;22.17;;;13.10;;
55678;SDS011;41573;51.446;-2.018;2022-07-12T02:34:32;11.13;;;8.07;;
55678;SDS011;41573;51.446;-2.018;2022-07-12T02:36:58;1.50;;;1.40;;
55678;SDS011;41573;51.446;-2.018;2022-07-12T02:39:23;5.32;;;1.35;;
55678;SDS011;41573;51.446;-2.018;2022-07-12T02:41:49;1.98;;;1.83;;
55678;SDS011;41573;51.446;-2.018;2022-07-12T02:44:14;1.02;;;0.93;;
55678;SDS011;41573;51.446;-2.018;2022-07-12T02:46:39;6.80;;;2.17;;
55678;SDS011;41573;51.446;-2.018;2022-07-12T02:49:05;6.45;;;3.60;;
55678;SDS011;41573;51.446;-2.018;2022-07-12T02:51:30;3.10;;;2.45;;
55678;SDS011;41573;51.446;-2.018;2022-07-12T02:53:56;13.00;;;3.83;;
55678;SDS011;41573;51.446;-2.018;2022-07-12T02:56:21;6.53;;;4.55;;
55678;SDS011;41573;51.446;-2.018;2022-07-12T02:58:46;5.45;;;3.15;;
55678;SDS011;41573;51.446;-2.018;2022-07-12T03:01:12;8.77;;;5.07;;
55678;SDS011;41573;51.446;-2.018;2022-07-12T03:03:39;3.88;;;3.28;;
55678;SDS011;41573;51.446;-2.018;2022-07-12T03:08:42;4.95;;;2.25;;
55678;SDS011;41573;51.446;-2.018;2022-07-12T03:11:08;5.05;;;3.63;;
55678;SDS011;41573;51.446;-2.018;2022-07-12T03:13:33;8.30;;;4.30;;
55678;SDS011;41573;51.446;-2.018;2022-07-12T03:15:59;6.60;;;2.97;;
55678;SDS011;41573;51.446;-2.018;2022-07-12T03:18:24;3.00;;;2.17;;
55678;SDS011;41573;51.446;-2.018;2022-07-12T03:20:50;4.78;;;1.52;;
55678;SDS011;41573;51.446;-2.018;2022-07-12T03:23:15;2.65;;;2.13;;
55678;SDS011;41573;51.446;-2.018;2022-07-12T03:25:41;1.42;;;1.33;;
55678;SDS011;41573;51.446;-2.018;2022-07-12T03:28:06;2.72;;;2.05;;
55678;SDS011;41573;51.446;-2.018;2022-07-12T03:30:31;5.57;;;3.78;;
55678;SDS011;41573;51.446;-2.018;2022-07-12T03:32:57;4.13;;;3.00;;
55678;SDS011;41573;51.446;-2.018;2022-07-12T03:35:22;3.33;;;2.75;;
55678;SDS011;41573;51.446;-2.018;2022-07-12T03:37:49;5.10;;;3.33;;
55678;SDS011;41573;51.446;-2.018;2022-07-12T03:40:16;9.50;;;5.40;;
55678;SDS011;41573;51.446;-2.018;2022-07-12T03:42:42;6.47;;;2.13;;
55678;SDS011;41573;51.446;-2.018;2022-07-12T03:45:09;3.45;;;1.98;;
55678;SDS011;41573;51.446;-2.018;2022-07-12T03:47:36;4.47;;;3.35;;
55678;SDS011;41573;51.446;-2.018;2022-07-12T03:50:03;3.42;;;3.13;;
55678;SDS011;41573;51.446;-2.018;2022-07-12T03:52:30;16.40;;;3.28;;
55678;SDS011;41573;51.446;-2.018;2022-07-12T03:54:56;19.02;;;5.03;;
55678;SDS011;41573;51.446;-2.018;2022-07-12T03:57:21;6.47;;;4.78;;
55678;SDS011;41573;51.446;-2.018;2022-07-12T03:59:47;14.35;;;5.15;;
55678;SDS011;41573;51.446;-2.018;2022-07-12T04:02:12;2.53;;;2.33;;
55678;SDS011;41573;51.446;-2.018;2022-07-12T04:04:38;2.05;;;1.92;;
55678;SDS011;41573;51.446;-2.018;2022-07-12T04:07:04;3.63;;;2.03;;
55678;SDS011;41573;51.446;-2.018;2022-07-12T04:09:30;2.95;;;2.38;;
55678;SDS011;41573;51.446;-2.018;2022-07-12T04:11:57;4.85;;;3.10;;
55678;SDS011;41573;51.446;-2.018;2022-07-12T04:14:22;4.25;;;3.78;;
55678;SDS011;41573;51.446;-2.018;2022-07-12T04:16:48;4.45;;;2.80;;
55678;SDS011;41573;51.446;-2.018;2022-07-12T04:19:13;2.05;;;1.85;;
55678;SDS011;41573;51.446;-2.018;2022-07-12T04:21:38;2.38;;;1.92;;
55678;SDS011;41573;51.446;-2.018;2022-07-12T04:24:04;1.50;;;1.40;;
55678;SDS011;41573;51.446;-2.018;2022-07-12T04:26:30;2.20;;;2.00;;
55678;SDS011;41573;51.446;-2.018;2022-07-12T04:28:56;1.45;;;1.35;;
55678;SDS011;41573;51.446;-2.018;2022-07-12T04:31:22;4.90;;;1.92;;
55678;SDS011;41573;51.446;-2.018;2022-07-12T04:33:47;3.47;;;3.15;;
55678;SDS011;41573;51.446;-2.018;2022-07-12T04:36:12;3.35;;;2.88;;
55678;SDS011;41573;51.446;-2.018;2022-07-12T04:38:38;4.88;;;2.55;;
55678;SDS011;41573;51.446;-2.018;2022-07-12T04:41:03;2.38;;;1.38;;
55678;SDS011;41573;51.446;-2.018;2022-07-12T04:43:29;3.10;;;2.63;;
55678;SDS011;41573;51.446;-2.018;2022-07-12T04:45:54;3.35;;;1.48;;
55678;SDS011;41573;51.446;-2.018;2022-07-12T04:48:20;10.07;;;2.20;;
55678;SDS011;41573;51.446;-2.018;2022-07-12T04:50:45;2.25;;;1.92;;
55678;SDS011;41573;51.446;-2.018;2022-07-12T04:53:10;3.10;;;2.33;;
55678;SDS011;41573;51.446;-2.018;2022-07-12T04:55:36;7.18;;;2.40;;
55678;SDS011;41573;51.446;-2.018;2022-07-12T04:58:02;4.15;;;1.55;;
55678;SDS011;41573;51.446;-2.018;2022-07-12T05:00:29;2.22;;;1.73;;
55678;SDS011;41573;51.446;-2.018;2022-07-12T05:02:55;1.45;;;1.35;;
55678;SDS011;41573;51.446;-2.018;2022-07-12T05:05:20;0.80;;;0.80;;
55678;SDS011;41573;51.446;-2.018;2022-07-12T05:07:46;0.90;;;0.77;;
55678;SDS011;41573;51.446;-2.018;2022-07-12T05:10:11;2.67;;;1.10;;
55678;SDS011;41573;51.446;-2.018;2022-07-12T05:12:37;1.55;;;1.45;;
55678;SDS011;41573;51.446;-2.018;2022-07-12T05:15:06;0.98;;;0.98;;
55678;SDS011;41573;51.446;-2.018;2022-07-12T05:19:58;1.50;;;1.40;;
55678;SDS011;41573;51.446;-2.018;2022-07-12T05:22:23;2.20;;;2.00;;
55678;SDS011;41573;51.446;-2.018;2022-07-12T05:24:48;4.38;;;2.38;;
55678;SDS011;41573;51.446;-2.018;2022-07-12T05:27:14;2.70;;;2.47;;
55678;SDS011;41573;51.446;-2.018;2022-07-12T05:29:39;4.00;;;1.77;;
55678;SDS011;41573;51.446;-2.018;2022-07-12T05:32:05;5.13;;;3.10;;
55678;SDS011;41573;51.446;-2.018;2022-07-12T05:34:30;5.72;;;3.17;;
55678;SDS011;41573;51.446;-2.018;2022-07-12T05:36:56;3.97;;;3.53;;
55678;SDS011;41573;51.446;-2.018;2022-07-12T05:39:21;11.27;;;5.70;;
55678;SDS011;41573;51.446;-2.018;2022-07-12T05:41:47;13.95;;;5.75;;
55678;SDS011;41573;51.446;-2.018;2022-07-12T05:44:13;7.78;;;5.93;;
55678;SDS011;41573;51.446;-2.018;2022-07-12T05:46:38;6.80;;;6.10;;
55678;SDS011;41573;51.446;-2.018;2022-07-12T05:49:05;12.60;;;5.63;;
55678;SDS011;41573;51.446;-2.018;2022-07-12T05:51:31;13.50;;;3.70;;
55678;SDS011;41573;51.446;-2.018;2022-07-12T05:54:15;5.95;;;4.15;;
55678;SDS011;41573;51.446;-2.018;2022-07-12T05:56:40;3.53;;;2.60;;
55678;SDS011;41573;51.446;-2.018;2022-07-12T05:59:06;4.68;;;3.40;;
55678;SDS011;41573;51.446;-2.018;2022-07-12T06:01:31;8.70;;;4.10;;
55678;SDS011;41573;51.446;-2.018;2022-07-12T06:03:57;3.70;;;3.25;;
55678;SDS011;41573;51.446;-2.018;2022-07-12T06:06:22;4.90;;;2.95;;
55678;SDS011;41573;51.446;-2.018;2022-07-12T06:08:47;7.05;;;3.92;;
55678;SDS011;41573;51.446;-2.018;2022-07-12T06:11:13;1.45;;;1.35;;
55678;SDS011;41573;51.446;-2.018;2022-07-12T06:13:38;3.28;;;2.75;;
55678;SDS011;41573;51.446;-2.018;2022-07-12T06:16:04;3.10;;;2.42;;
55678;SDS011;41573;51.446;-2.018;2022-07-12T06:18:35;4.68;;;3.30;;
55678;SDS011;41573;51.446;-2.018;2022-07-12T06:21:00;3.22;;;2.92;;
55678;SDS011;41573;51.446;-2.018;2022-07-12T06:23:26;1.52;;;1.42;;
55678;SDS011;41573;51.446;-2.018;2022-07-12T06:25:51;2.28;;;1.88;;
55678;SDS011;41573;51.446;-2.018;2022-07-12T06:28:17;2.33;;;2.13;;
55678;SDS011;41573;51.446;-2.018;2022-07-12T06:30:42;2.28;;;1.95;;
55678;SDS011;41573;51.446;-2.018;2022-07-12T06:33:07;3.90;;;3.03;;
55678;SDS011;41573;51.446;-2.018;2022-07-12T06:35:33;3.83;;;3.00;;
55678;SDS011;41573;51.446;-2.018;2022-07-12T06:37:59;5.45;;;3.88;;
55678;SDS011;41573;51.446;-2.018;2022-07-12T06:40:24;3.28;;;2.92;;
55678;SDS011;41573;51.446;-2.018;2022-07-12T06:42:50;7.18;;;3.33;;
55678;SDS011;41573;51.446;-2.018;2022-07-12T06:45:17;3.83;;;3.45;;
55678;SDS011;41573;51.446;-2.018;2022-07-12T06:47:43;8.05;;;5.28;;
55678;SDS011;41573;51.446;-2.018;2022-07-12T06:50:08;7.18;;;3.53;;
55678;SDS011;41573;51.446;-2.018;2022-07-12T06:52:34;7.35;;;5.50;;
55678;SDS011;41573;51.446;-2.018;2022-07-12T06:55:00;10.65;;;5.47;;
55678;SDS011;41573;51.446;-2.018;2022-07-12T06:57:25;15.45;;;5.32;;
55678;SDS011;41573;51.446;-2.018;2022-07-12T06:59:51;15.85;;;6.60;;
55678;SDS011;41573;51.446;-2.018;2022-07-12T07:02:17;12.55;;;7.07;;
55678;SDS011;41573;51.446;-2.018;2022-07-12T07:04:42;11.15;;;6.38;;
55678;SDS011;41573;51.446;-2.018;2022-07-12T07:07:08;16.60;;;6.47;;
55678;SDS011;41573;51.446;-2.018;2022-07-12T07:09:33;10.52;;;6.78;;
55678;SDS011;41573;51.446;-2.018;2022-07-12T07:11:59;21.92;;;5.10;;
55678;SDS011;41573;51.446;-2.018;2022-07-12T07:14:25;4.78;;;4.25;;
55678;SDS011;41573;51.446;-2.018;2022-07-12T07:16:52;23.48;;;6.35;;
55678;SDS011;41573;51.446;-2.018;2022-07-12T07:19:18;8.90;;;5.03;;
55678;SDS011;41573;51.446;-2.018;2022-07-12T07:21:43;4.70;;;3.28;;
55678;SDS011;41573;51.446;-2.018;2022-07-12T07:24:09;3.53;;;2.75;;
55678;SDS011;41573;51.446;-2.018;2022-07-12T07:26:35;5.57;;;4.22;;
55678;SDS011;41573;51.446;-2.018;2022-07-12T07:29:00;3.53;;;3.22;;
55678;SDS011;41573;51.446;-2.018;2022-07-12T07:31:44;2.42;;;2.10;;
55678;SDS011;41573;51.446;-2.018;2022-07-12T07:34:10;4.45;;;3.50;;
55678;SDS011;41573;51.446;-2.018;2022-07-12T07:36:35;15.10;;;3.85;;
55678;SDS011;41573;51.446;-2.018;2022-07-12T07:39:01;1.77;;;1.67;;
55678;SDS011;41573;51.446;-2.018;2022-07-12T07:41:26;4.15;;;3.45;;
55678;SDS011;41573;51.446;-2.018;2022-07-12T07:43:51;3.50;;;2.50;;
55678;SDS011;41573;51.446;-2.018;2022-07-12T07:46:17;3.67;;;2.80;;
55678;SDS011;41573;51.446;-2.018;2022-07-12T07:48:42;5.53;;;2.88;;
55678;SDS011;41573;51.446;-2.018;2022-07-12T07:54:29;4.03;;;1.98;;
55678;SDS011;41573;51.446;-2.018;2022-07-12T07:56:55;1.42;;;1.33;;
55678;SDS011;41573;51.446;-2.018;2022-07-12T07:59:20;1.70;;;1.58;;
55678;SDS011;41573;51.446;-2.018;2022-07-12T08:01:45;4.13;;;2.00;;
55678;SDS011;41573;51.446;-2.018;2022-07-12T08:04:14;1.58;;;1.17;;
55678;SDS011;41573;51.446;-2.018;2022-07-12T08:06:42;1.00;;;0.93;;
55678;SDS011;41573;51.446;-2.018;2022-07-12T08:09:08;1.38;;;1.27;;
55678;SDS011;41573;51.446;-2.018;2022-07-12T08:11:34;1.55;;;1.45;;
55678;SDS011;41573;51.446;-2.018;2022-07-12T08:14:00;10.82;;;2.05;;
55678;SDS011;41573;51.446;-2.018;2022-07-12T08:16:26;1.65;;;1.15;;
55678;SDS011;41573;51.446;-2.018;2022-07-12T08:18:52;2.17;;;1.83;;
55678;SDS011;41573;51.446;-2.018;2022-07-12T08:21:19;0.65;;;0.65;;
55678;SDS011;41573;51.446;-2.018;2022-07-12T08:23:44;1.23;;;0.88;;
55678;SDS011;41573;51.446;-2.018;2022-07-12T08:26:10;0.98;;;0.98;;
55678;SDS011;41573;51.446;-2.018;2022-07-12T08:28:35;0.60;;;0.60;;
55678;SDS011;41573;51.446;-2.018;2022-07-12T08:31:01;1.65;;;1.45;;
55678;SDS011;41573;51.446;-2.018;2022-07-12T08:33:26;1.02;;;1.02;;
55678;SDS011;41573;51.446;-2.018;2022-07-12T08:35:51;1.88;;;0.90;;
55678;SDS011;41573;51.446;-2.018;2022-07-12T08:38:17;3.15;;;1.13;;
55678;SDS011;41573;51.446;-2.018;2022-07-12T08:40:42;3.75;;;1.60;;
55678;SDS011;41573;51.446;-2.018;2022-07-12T08:43:08;0.70;;;0.70;;
55678;SDS011;41573;51.446;-2.018;2022-07-12T08:45:34;1.38;;;1.27;;
55678;SDS011;41573;51.446;-2.018;2022-07-12T08:47:59;1.02;;;0.98;;
55678;SDS011;41573;51.446;-2.018;2022-07-12T08:50:25;1.50;;;1.40;;
55678;SDS011;41573;51.446;-2.018;2022-07-12T08:52:52;2.42;;;0.88;;
55678;SDS011;41573;51.446;-2.018;2022-07-12T08:55:29;6.05;;;1.20;;
55678;SDS011;41573;51.446;-2.018;2022-07-12T08:57:57;0.90;;;0.90;;
55678;SDS011;41573;51.446;-2.018;2022-07-12T09:00:24;2.38;;;1.75;;
55678;SDS011;41573;51.446;-2.018;2022-07-12T09:02:51;4.13;;;1.15;;
55678;SDS011;41573;51.446;-2.018;2022-07-12T09:05:22;3.95;;;2.60;;
55678;SDS011;41573;51.446;-2.018;2022-07-12T09:07:50;4.85;;;2.17;;
55678;SDS011;41573;51.446;-2.018;2022-07-12T09:10:17;9.00;;;4.32;;
55678;SDS011;41573;51.446;-2.018;2022-07-12T09:12:43;3.00;;;2.33;;
55678;SDS011;41573;51.446;-2.018;2022-07-12T09:23:00;8.18;;;3.15;;
55678;SDS011;41573;51.446;-2.018;2022-07-12T09:25:28;6.05;;;4.43;;
55678;SDS011;41573;51.446;-2.018;2022-07-12T09:27:54;9.35;;;2.92;;
55678;SDS011;41573;51.446;-2.018;2022-07-12T09:30:24;5.75;;;3.28;;
55678;SDS011;41573;51.446;-2.018;2022-07-12T09:32:51;3.83;;;2.58;;
55678;SDS011;41573;51.446;-2.018;2022-07-12T09:35:36;9.02;;;3.75;;
55678;SDS011;41573;51.446;-2.018;2022-07-12T09:38:20;4.47;;;3.42;;
55678;SDS011;41573;51.446;-2.018;2022-07-12T09:40:45;2.65;;;2.13;;
55678;SDS011;41573;51.446;-2.018;2022-07-12T09:43:12;4.30;;;2.35;;
55678;SDS011;41573;51.446;-2.018;2022-07-12T09:45:39;2.38;;;2.17;;
55678;SDS011;41573;51.446;-2.018;2022-07-12T09:48:05;3.08;;;2.85;;
55678;SDS011;41573;51.446;-2.018;2022-07-12T09:50:35;3.70;;;2.92;;
55678;SDS011;41573;51.446;-2.018;2022-07-12T12:27:25;1.58;;;1.42;;
55678;SDS011;41573;51.446;-2.018;2022-07-12T12:29:50;1.58;;;0.98;;
55678;SDS011;41573;51.446;-2.018;2022-07-12T12:32:18;2.78;;;0.60;;
55678;SDS011;41573;51.446;-2.018;2022-07-12T12:37:35;4.18;;;1.27;;
55678;SDS011;41573;51.446;-2.018;2022-07-12T12:40:01;1.33;;;1.08;;
55678;SDS011;41573;51.446;-2.018;2022-07-12T12:42:27;0.95;;;0.95;;
55678;SDS011;41573;51.446;-2.018;2022-07-12T12:44:53;1.35;;;1.17;;
55678;SDS011;41573;51.446;-2.018;2022-07-12T12:47:18;0.70;;;0.70;;
55678;SDS011;41573;51.446;-2.018;2022-07-12T12:49:56;3.85;;;1.42;;
55678;SDS011;41573;51.446;-2.018;2022-07-12T12:52:30;1.05;;;1.05;;
55678;SDS011;41573;51.446;-2.018;2022-07-12T12:54:56;0.70;;;0.70;;
55678;SDS011;41573;51.446;-2.018;2022-07-12T12:57:23;2.22;;;1.00;;
55678;SDS011;41573;51.446;-2.018;2022-07-12T12:59:50;1.15;;;1.05;;
55678;SDS011;41573;51.446;-2.018;2022-07-12T13:02:16;0.45;;;0.40;;
55678;SDS011;41573;51.446;-2.018;2022-07-12T13:04:42;0.85;;;0.80;;
55678;SDS011;41573;51.446;-2.018;2022-07-12T13:07:07;0.35;;;0.35;;
55678;SDS011;41573;51.446;-2.018;2022-07-12T13:09:33;0.50;;;0.50;;
55678;SDS011;41573;51.446;-2.018;2022-07-12T13:11:58;0.73;;;0.50;;
55678;SDS011;41573;51.446;-2.018;2022-07-12T13:14:24;0.50;;;0.50;;
55678;SDS011;41573;51.446;-2.018;2022-07-12T13:16:50;0.40;;;0.40;;
55678;SDS011;41573;51.446;-2.018;2022-07-12T13:19:16;0.32;;;0.32;;
55678;SDS011;41573;51.446;-2.018;2022-07-12T13:21:41;0.50;;;0.50;;
55678;SDS011;41573;51.446;-2.018;2022-07-12T13:24:07;0.50;;;0.50;;
55678;SDS011;41573;51.446;-2.018;2022-07-12T13:26:33;1.23;;;0.68;;
55678;SDS011;41573;51.446;-2.018;2022-07-12T13:28:58;0.22;;;0.22;;
55678;SDS011;41573;51.446;-2.018;2022-07-12T13:31:24;0.45;;;0.45;;
55678;SDS011;41573;51.446;-2.018;2022-07-12T13:33:51;0.30;;;0.30;;
55678;SDS011;41573;51.446;-2.018;2022-07-12T13:36:17;0.40;;;0.40;;
55678;SDS011;41573;51.446;-2.018;2022-07-12T13:38:42;0.22;;;0.22;;
55678;SDS011;41573;51.446;-2.018;2022-07-12T13:41:08;1.95;;;1.20;;
55678;SDS011;41573;51.446;-2.018;2022-07-12T13:43:33;0.47;;;0.47;;
55678;SDS011;41573;51.446;-2.018;2022-07-12T13:45:59;0.50;;;0.50;;
55678;SDS011;41573;51.446;-2.018;2022-07-12T13:48:24;0.20;;;0.20;;
55678;SDS011;41573;51.446;-2.018;2022-07-12T13:50:50;0.28;;;0.28;;
55678;SDS011;41573;51.446;-2.018;2022-07-12T13:53:15;0.15;;;0.15;;
55678;SDS011;41573;51.446;-2.018;2022-07-12T13:55:42;0.38;;;0.38;;
55678;SDS011;41573;51.446;-2.018;2022-07-12T13:58:08;0.30;;;0.30;;
55678;SDS011;41573;51.446;-2.018;2022-07-12T14:00:34;0.40;;;0.40;;
55678;SDS011;41573;51.446;-2.018;2022-07-12T14:02:59;0.20;;;0.20;;
55678;SDS011;41573;51.446;-2.018;2022-07-12T14:05:25;0.30;;;0.30;;
55678;SDS011;41573;51.446;-2.018;2022-07-12T14:07:50;0.30;;;0.30;;
55678;SDS011;41573;51.446;-2.018;2022-07-12T14:10:17;0.20;;;0.20;;
55678;SDS011;41573;51.446;-2.018;2022-07-12T14:12:43;0.25;;;0.25;;
55678;SDS011;41573;51.446;-2.018;2022-07-12T14:15:08;0.20;;;0.20;;
55678;SDS011;41573;51.446;-2.018;2022-07-12T14:17:38;0.25;;;0.25;;
55678;SDS011;41573;51.446;-2.018;2022-07-12T14:20:08;0.40;;;0.40;;
55678;SDS011;41573;51.446;-2.018;2022-07-12T14:22:37;0.30;;;0.30;;
55678;SDS011;41573;51.446;-2.018;2022-07-12T14:25:03;0.20;;;0.20;;
55678;SDS011;41573;51.446;-2.018;2022-07-12T14:27:31;0.20;;;0.20;;
55678;SDS011;41573;51.446;-2.018;2022-07-12T14:29:56;0.10;;;0.10;;
55678;SDS011;41573;51.446;-2.018;2022-07-12T14:32:22;1.98;;;0.95;;
55678;SDS011;41573;51.446;-2.018;2022-07-12T14:34:47;0.63;;;0.63;;
55678;SDS011;41573;51.446;-2.018;2022-07-12T14:37:13;0.15;;;0.15;;
55678;SDS011;41573;51.446;-2.018;2022-07-12T14:39:38;0.25;;;0.25;;
55678;SDS011;41573;51.446;-2.018;2022-07-12T14:42:04;0.20;;;0.20;;
55678;SDS011;41573;51.446;-2.018;2022-07-12T14:44:29;0.20;;;0.20;;
55678;SDS011;41573;51.446;-2.018;2022-07-12T14:46:55;0.50;;;0.50;;
55678;SDS011;41573;51.446;-2.018;2022-07-12T14:49:20;0.22;;;0.22;;
55678;SDS011;41573;51.446;-2.018;2022-07-12T14:51:46;0.38;;;0.38;;
55678;SDS011;41573;51.446;-2.018;2022-07-12T14:54:12;2.55;;;0.50;;
55678;SDS011;41573;51.446;-2.018;2022-07-12T14:56:37;1.35;;;1.05;;
55678;SDS011;41573;51.446;-2.018;2022-07-12T14:59:03;0.20;;;0.20;;
55678;SDS011;41573;51.446;-2.018;2022-07-12T15:01:28;0.85;;;0.47;;
55678;SDS011;41573;51.446;-2.018;2022-07-12T15:03:54;0.20;;;0.20;;
55678;SDS011;41573;51.446;-2.018;2022-07-12T15:06:19;0.10;;;0.10;;
55678;SDS011;41573;51.446;-2.018;2022-07-12T15:08:45;0.50;;;0.50;;
55678;SDS011;41573;51.446;-2.018;2022-07-12T15:11:11;1.25;;;0.30;;
55678;SDS011;41573;51.446;-2.018;2022-07-12T15:13:37;0.30;;;0.30;;
55678;SDS011;41573;51.446;-2.018;2022-07-12T15:16:02;0.40;;;0.40;;
55678;SDS011;41573;51.446;-2.018;2022-07-12T15:18:28;0.20;;;0.20;;
55678;SDS011;41573;51.446;-2.018;2022-07-12T15:20:54;0.80;;;0.50;;
55678;SDS011;41573;51.446;-2.018;2022-07-12T15:23:19;0.32;;;0.30;;
55678;SDS011;41573;51.446;-2.018;2022-07-12T15:25:45;0.30;;;0.30;;
55678;SDS011;41573;51.446;-2.018;2022-07-12T15:28:10;0.43;;;0.43;;
55678;SDS011;41573;51.446;-2.018;2022-07-12T15:30:36;0.52;;;0.52;;
55678;SDS011;41573;51.446;-2.018;2022-07-12T15:33:05;0.20;;;0.20;;
55678;SDS011;41573;51.446;-2.018;2022-07-12T15:35:30;0.47;;;0.47;;
55678;SDS011;41573;51.446;-2.018;2022-07-12T15:37:56;0.50;;;0.50;;
55678;SDS011;41573;51.446;-2.018;2022-07-12T15:40:21;0.20;;;0.20;;
55678;SDS011;41573;51.446;-2.018;2022-07-12T15:42:47;0.82;;;0.40;;
55678;SDS011;41573;51.446;-2.018;2022-07-12T15:45:12;0.22;;;0.22;;
55678;SDS011;41573;51.446;-2.018;2022-07-12T15:47:38;0.20;;;0.20;;
55678;SDS011;41573;51.446;-2.018;2022-07-12T15:50:04;0.20;;;0.20;;
55678;SDS011;41573;51.446;-2.018;2022-07-12T15:52:30;0.10;;;0.10;;
55678;SDS011;41573;51.446;-2.018;2022-07-12T15:55:14;0.30;;;0.30;;
55678;SDS011;41573;51.446;-2.018;2022-07-12T15:57:40;0.28;;;0.28;;
55678;SDS011;41573;51.446;-2.018;2022-07-12T16:00:06;0.30;;;0.30;;
55678;SDS011;41573;51.446;-2.018;2022-07-12T16:02:33;0.30;;;0.30;;
55678;SDS011;41573;51.446;-2.018;2022-07-12T16:04:59;0.20;;;0.20;;
55678;SDS011;41573;51.446;-2.018;2022-07-12T16:07:24;0.20;;;0.20;;
55678;SDS011;41573;51.446;-2.018;2022-07-12T16:09:51;0.20;;;0.20;;
55678;SDS011;41573;51.446;-2.018;2022-07-12T16:14:45;0.20;;;0.20;;
55678;SDS011;41573;51.446;-2.018;2022-07-12T16:17:11;2.75;;;0.60;;
55678;SDS011;41573;51.446;-2.018;2022-07-12T16:19:37;0.20;;;0.20;;
55678;SDS011;41573;51.446;-2.018;2022-07-12T16:22:03;0.35;;;0.35;;
55678;SDS011;41573;51.446;-2.018;2022-07-12T16:24:28;0.22;;;0.22;;
55678;SDS011;41573;51.446;-2.018;2022-07-12T16:26:54;0.35;;;0.35;;
55678;SDS011;41573;51.446;-2.018;2022-07-12T16:29:20;0.30;;;0.30;;
55678;SDS011;41573;51.446;-2.018;2022-07-12T16:31:46;0.47;;;0.47;;
55678;SDS011;41573;51.446;-2.018;2022-07-12T16:34:12;0.30;;;0.30;;
55678;SDS011;41573;51.446;-2.018;2022-07-12T16:36:38;0.20;;;0.20;;
55678;SDS011;41573;51.446;-2.018;2022-07-12T16:39:03;0.30;;;0.30;;
55678;SDS011;41573;51.446;-2.018;2022-07-12T16:41:29;0.22;;;0.22;;
55678;SDS011;41573;51.446;-2.018;2022-07-12T16:43:54;0.30;;;0.30;;
55678;SDS011;41573;51.446;-2.018;2022-07-12T16:46:19;0.20;;;0.20;;
55678;SDS011;41573;51.446;-2.018;2022-07-12T16:48:45;1.63;;;0.50;;
55678;SDS011;41573;51.446;-2.018;2022-07-12T16:51:11;0.50;;;0.50;;
55678;SDS011;41573;51.446;-2.018;2022-07-12T16:53:52;0.35;;;0.35;;
55678;SDS011;41573;51.446;-2.018;2022-07-12T16:56:22;0.52;;;0.52;;
55678;SDS011;41573;51.446;-2.018;2022-07-12T16:58:48;0.40;;;0.40;;
55678;SDS011;41573;51.446;-2.018;2022-07-12T17:01:15;0.50;;;0.50;;
55678;SDS011;41573;51.446;-2.018;2022-07-12T17:03:41;2.80;;;0.47;;
55678;SDS011;41573;51.446;-2.018;2022-07-12T17:06:06;0.20;;;0.20;;
55678;SDS011;41573;51.446;-2.018;2022-07-12T17:08:32;0.30;;;0.30;;
55678;SDS011;41573;51.446;-2.018;2022-07-12T17:10:57;0.10;;;0.10;;
55678;SDS011;41573;51.446;-2.018;2022-07-12T17:13:22;0.28;;;0.28;;
55678;SDS011;41573;51.446;-2.018;2022-07-12T17:15:48;0.20;;;0.20;;
55678;SDS011;41573;51.446;-2.018;2022-07-12T17:18:15;0.10;;;0.10;;
55678;SDS011;41573;51.446;-2.018;2022-07-12T17:20:40;1.38;;;0.70;;
55678;SDS011;41573;51.446;-2.018;2022-07-12T17:23:05;0.43;;;0.43;;